sensor_id;sensor_type;location;lat;lon;timestamp;pressure;altitude;pressure_sealevel;temperature;humidity
29215;BME280;16252;49.816;7.964;2024-03-07T00:02:14;100615.41;;;10.36;51.62
29215;BME280;16252;49.816;7.964;2024-03-07T00:04:39;100704.53;;;10.91;51.33
29215;BME280;16252;49.816;7.964;2024-03-07T00:07:05;100644.88;;;10.49;51.61
29215;BME280;16252;49.816;7.964;2024-03-07T00:09:34;100686.50;;;10.80;51.74
29215;BME280;16252;49.816;7.964;2024-03-07T00:12:04;100692.50;;;10.83;51.73
29215;BME280;16252;49.816;7.964;2024-03-07T00:14:31;100688.44;;;10.78;51.75
29215;BME280;16252;49.816;7.964;2024-03-07T00:16:58;100630.81;;;10.45;51.66
29215;BME280;16252;49.816;7.964;2024-03-07T00:19:24;100667.09;;;10.63;51.58
29215;BME280;16252;49.816;7.964;2024-03-07T00:21:52;100697.88;;;10.83;51.75
29215;BME280;16252;49.816;7.964;2024-03-07T00:24:18;100641.22;;;10.50;51.55
29215;BME280;16252;49.816;7.964;2024-03-07T00:26:44;100695.53;;;10.79;51.59
29215;BME280;16252;49.816;7.964;2024-03-07T00:29:09;100657.53;;;10.59;51.77
29215;BME280;16252;49.816;7.964;2024-03-07T00:31:35;100546.25;;;9.88;51.64
29215;BME280;16252;49.816;7.964;2024-03-07T00:34:00;100640.59;;;10.46;51.71
29215;BME280;16252;49.816;7.964;2024-03-07T00:36:26;100689.50;;;10.75;51.80
29215;BME280;16252;49.816;7.964;2024-03-07T00:38:52;100668.03;;;10.62;51.75
29215;BME280;16252;49.816;7.964;2024-03-07T00:41:17;100683.72;;;10.69;51.62
29215;BME280;16252;49.816;7.964;2024-03-07T00:43:42;100630.06;;;10.43;51.71
29215;BME280;16252;49.816;7.964;2024-03-07T00:46:08;100603.84;;;10.21;51.72
29215;BME280;16252;49.816;7.964;2024-03-07T00:48:36;100685.88;;;10.76;51.80
29215;BME280;16252;49.816;7.964;2024-03-07T00:51:01;100705.50;;;10.90;51.67
29215;BME280;16252;49.816;7.964;2024-03-07T00:53:26;100628.25;;;10.44;51.67
29215;BME280;16252;49.816;7.964;2024-03-07T00:55:51;100630.66;;;10.48;51.65
29215;BME280;16252;49.816;7.964;2024-03-07T00:58:17;100669.13;;;10.73;51.65
29215;BME280;16252;49.816;7.964;2024-03-07T01:00:43;100599.84;;;10.28;51.57
29215;BME280;16252;49.816;7.964;2024-03-07T01:03:09;100673.84;;;10.69;51.91
29215;BME280;16252;49.816;7.964;2024-03-07T01:05:36;100709.59;;;10.95;51.74
29215;BME280;16252;49.816;7.964;2024-03-07T01:08:02;100691.88;;;10.80;51.76
29215;BME280;16252;49.816;7.964;2024-03-07T01:10:27;100551.66;;;10.01;51.68
29215;BME280;16252;49.816;7.964;2024-03-07T01:12:53;100673.97;;;10.80;51.74
29215;BME280;16252;49.816;7.964;2024-03-07T01:15:23;100591.63;;;10.31;51.95
29215;BME280;16252;49.816;7.964;2024-03-07T01:17:48;100615.44;;;10.49;51.79
29215;BME280;16252;49.816;7.964;2024-03-07T01:20:13;100575.19;;;10.23;51.65
29215;BME280;16252;49.816;7.964;2024-03-07T01:22:39;100612.84;;;10.47;51.60
29215;BME280;16252;49.816;7.964;2024-03-07T01:25:05;100644.63;;;10.66;51.62
29215;BME280;16252;49.816;7.964;2024-03-07T01:27:31;100634.44;;;10.58;51.74
29215;BME280;16252;49.816;7.964;2024-03-07T01:29:57;100629.94;;;10.59;51.52
29215;BME280;16252;49.816;7.964;2024-03-07T01:32:22;100682.47;;;10.87;51.83
29215;BME280;16252;49.816;7.964;2024-03-07T01:34:47;100647.84;;;10.71;51.73
29215;BME280;16252;49.816;7.964;2024-03-07T01:37:13;100561.81;;;10.23;51.65
29215;BME280;16252;49.816;7.964;2024-03-07T01:39:38;100646.31;;;10.67;51.80
29215;BME280;16252;49.816;7.964;2024-03-07T01:42:03;100643.75;;;10.66;51.79
29215;BME280;16252;49.816;7.964;2024-03-07T01:44:29;100657.28;;;10.77;51.70
29215;BME280;16252;49.816;7.964;2024-03-07T01:46:57;100679.50;;;10.92;51.96
29215;BME280;16252;49.816;7.964;2024-03-07T01:49:23;100645.34;;;10.68;51.96
29215;BME280;16252;49.816;7.964;2024-03-07T01:51:48;100638.28;;;10.67;51.98
29215;BME280;16252;49.816;7.964;2024-03-07T01:54:13;100639.16;;;10.68;51.83
29215;BME280;16252;49.816;7.964;2024-03-07T01:56:39;100651.72;;;10.80;51.85
29215;BME280;16252;49.816;7.964;2024-03-07T01:59:06;100638.09;;;10.70;51.89
29215;BME280;16252;49.816;7.964;2024-03-07T02:01:32;100609.78;;;10.53;51.79
29215;BME280;16252;49.816;7.964;2024-03-07T02:03:58;100566.28;;;10.23;51.65
29215;BME280;16252;49.816;7.964;2024-03-07T02:06:24;100679.88;;;10.85;51.83
29215;BME280;16252;49.816;7.964;2024-03-07T02:08:50;100645.25;;;10.70;51.84
29215;BME280;16252;49.816;7.964;2024-03-07T02:11:15;100609.41;;;10.45;51.67
29215;BME280;16252;49.816;7.964;2024-03-07T02:13:41;100567.25;;;10.22;51.63
29215;BME280;16252;49.816;7.964;2024-03-07T02:16:06;100615.63;;;10.46;51.56
29215;BME280;16252;49.816;7.964;2024-03-07T02:18:33;100660.25;;;10.72;51.79
29215;BME280;16252;49.816;7.964;2024-03-07T02:21:00;100632.44;;;10.48;51.70
29215;BME280;16252;49.816;7.964;2024-03-07T02:23:25;100614.06;;;10.29;51.67
29215;BME280;16252;49.816;7.964;2024-03-07T02:25:52;100602.03;;;10.22;51.74
29215;BME280;16252;49.816;7.964;2024-03-07T02:28:17;100664.47;;;10.49;51.60
29215;BME280;16252;49.816;7.964;2024-03-07T02:30:42;100589.19;;;9.99;51.84
29215;BME280;16252;49.816;7.964;2024-03-07T02:33:08;100626.66;;;10.12;51.81
29215;BME280;16252;49.816;7.964;2024-03-07T02:35:35;100574.53;;;9.78;51.81
29215;BME280;16252;49.816;7.964;2024-03-07T02:38:02;100630.25;;;9.98;51.88
29215;BME280;16252;49.816;7.964;2024-03-07T02:40:28;100658.31;;;10.06;52.12
29215;BME280;16252;49.816;7.964;2024-03-07T02:42:54;100646.50;;;9.95;52.21
29215;BME280;16252;49.816;7.964;2024-03-07T02:45:19;100576.00;;;9.41;52.15
29215;BME280;16252;49.816;7.964;2024-03-07T02:47:46;100582.09;;;9.43;52.05
29215;BME280;16252;49.816;7.964;2024-03-07T02:50:11;100639.03;;;9.72;52.27
29215;BME280;16252;49.816;7.964;2024-03-07T02:52:36;100587.16;;;9.33;52.22
29215;BME280;16252;49.816;7.964;2024-03-07T02:55:02;100626.47;;;9.45;52.37
29215;BME280;16252;49.816;7.964;2024-03-07T02:57:30;100606.88;;;9.30;52.45
29215;BME280;16252;49.816;7.964;2024-03-07T02:59:56;100570.34;;;9.02;52.38
29215;BME280;16252;49.816;7.964;2024-03-07T03:02:22;100630.06;;;9.30;52.51
29215;BME280;16252;49.816;7.964;2024-03-07T03:04:47;100622.59;;;9.21;52.50
29215;BME280;16252;49.816;7.964;2024-03-07T03:07:12;100590.72;;;9.03;52.53
29215;BME280;16252;49.816;7.964;2024-03-07T03:09:38;100639.97;;;9.28;52.56
29215;BME280;16252;49.816;7.964;2024-03-07T03:12:08;100635.78;;;9.38;52.06
29215;BME280;16252;49.816;7.964;2024-03-07T03:14:33;100588.50;;;8.81;52.34
29215;BME280;16252;49.816;7.964;2024-03-07T03:16:58;100628.09;;;9.03;52.51
29215;BME280;16252;49.816;7.964;2024-03-07T03:19:24;100648.34;;;9.07;52.81
29215;BME280;16252;49.816;7.964;2024-03-07T03:21:51;100589.13;;;8.71;52.85
29215;BME280;16252;49.816;7.964;2024-03-07T03:24:17;100538.59;;;8.37;53.06
29215;BME280;16252;49.816;7.964;2024-03-07T03:26:42;100635.78;;;8.94;53.03
29215;BME280;16252;49.816;7.964;2024-03-07T03:29:07;100578.59;;;8.53;53.02
29215;BME280;16252;49.816;7.964;2024-03-07T03:31:34;100571.16;;;8.44;53.01
29215;BME280;16252;49.816;7.964;2024-03-07T03:34:00;100566.06;;;8.39;53.27
29215;BME280;16252;49.816;7.964;2024-03-07T03:36:26;100624.69;;;8.71;53.25
29215;BME280;16252;49.816;7.964;2024-03-07T03:38:51;100598.88;;;8.56;53.20
29215;BME280;16252;49.816;7.964;2024-03-07T03:41:16;100618.25;;;8.59;53.16
29215;BME280;16252;49.816;7.964;2024-03-07T03:43:42;100608.28;;;8.47;53.30
29215;BME280;16252;49.816;7.964;2024-03-07T03:46:12;100640.19;;;8.64;53.59
29215;BME280;16252;49.816;7.964;2024-03-07T03:48:39;100631.66;;;8.58;53.36
29215;BME280;16252;49.816;7.964;2024-03-07T03:51:09;100621.72;;;8.45;53.46
29215;BME280;16252;49.816;7.964;2024-03-07T03:53:37;100619.44;;;8.38;53.34
29215;BME280;16252;49.816;7.964;2024-03-07T03:56:03;100641.09;;;8.49;53.31
29215;BME280;16252;49.816;7.964;2024-03-07T03:58:31;100612.66;;;8.32;53.62
29215;BME280;16252;49.816;7.964;2024-03-07T04:00:57;100604.34;;;8.22;53.47
29215;BME280;16252;49.816;7.964;2024-03-07T04:03:23;100579.09;;;7.98;53.40
29215;BME280;16252;49.816;7.964;2024-03-07T04:05:49;100604.16;;;8.10;53.56
29215;BME280;16252;49.816;7.964;2024-03-07T04:08:14;100629.34;;;8.20;53.50
29215;BME280;16252;49.816;7.964;2024-03-07T04:10:39;100623.53;;;8.13;53.40
29215;BME280;16252;49.816;7.964;2024-03-07T04:13:04;100599.44;;;7.99;53.59
29215;BME280;16252;49.816;7.964;2024-03-07T04:15:30;100616.13;;;8.02;53.65
29215;BME280;16252;49.816;7.964;2024-03-07T04:17:57;100629.38;;;8.04;53.57
29215;BME280;16252;49.816;7.964;2024-03-07T04:20:22;100614.91;;;7.92;53.62
29215;BME280;16252;49.816;7.964;2024-03-07T04:22:47;100634.69;;;8.04;53.78
29215;BME280;16252;49.816;7.964;2024-03-07T04:25:14;100625.41;;;7.95;53.72
29215;BME280;16252;49.816;7.964;2024-03-07T04:27:39;100614.59;;;7.82;53.82
29215;BME280;16252;49.816;7.964;2024-03-07T04:30:06;100630.81;;;7.94;53.83
29215;BME280;16252;49.816;7.964;2024-03-07T04:32:32;100621.56;;;7.85;53.81
29215;BME280;16252;49.816;7.964;2024-03-07T04:34:59;100601.75;;;7.73;53.92
29215;BME280;16252;49.816;7.964;2024-03-07T04:37:25;100606.31;;;7.71;53.94
29215;BME280;16252;49.816;7.964;2024-03-07T04:39:52;100606.31;;;7.71;53.91
29215;BME280;16252;49.816;7.964;2024-03-07T04:42:18;100607.09;;;7.73;53.87
29215;BME280;16252;49.816;7.964;2024-03-07T04:44:43;100582.22;;;7.57;53.79
29215;BME280;16252;49.816;7.964;2024-03-07T04:47:08;100615.25;;;7.70;53.80
29215;BME280;16252;49.816;7.964;2024-03-07T04:49:33;100598.97;;;7.59;53.83
29215;BME280;16252;49.816;7.964;2024-03-07T04:52:00;100604.91;;;7.64;53.95
29215;BME280;16252;49.816;7.964;2024-03-07T04:54:27;100619.72;;;7.70;53.95
29215;BME280;16252;49.816;7.964;2024-03-07T04:56:53;100588.91;;;7.48;53.95
29215;BME280;16252;49.816;7.964;2024-03-07T04:59:19;100625.38;;;7.64;53.92
29215;BME280;16252;49.816;7.964;2024-03-07T05:01:45;100605.75;;;7.49;54.09
29215;BME280;16252;49.816;7.964;2024-03-07T05:04:15;100605.91;;;7.46;54.23
29215;BME280;16252;49.816;7.964;2024-03-07T05:06:41;100624.06;;;7.55;54.13
29215;BME280;16252;49.816;7.964;2024-03-07T05:09:09;100624.22;;;7.52;54.03
29215;BME280;16252;49.816;7.964;2024-03-07T05:11:35;100594.91;;;7.36;54.16
29215;BME280;16252;49.816;7.964;2024-03-07T05:14:02;100601.84;;;7.38;54.06
29215;BME280;16252;49.816;7.964;2024-03-07T05:16:27;100621.97;;;7.44;54.07
29215;BME280;16252;49.816;7.964;2024-03-07T05:18:53;100616.75;;;7.43;54.26
29215;BME280;16252;49.816;7.964;2024-03-07T05:21:19;100588.69;;;7.20;54.29
29215;BME280;16252;49.816;7.964;2024-03-07T05:24:04;100605.97;;;7.28;54.49
29215;BME280;16252;49.816;7.964;2024-03-07T05:26:31;100625.75;;;7.40;54.32
29215;BME280;16252;49.816;7.964;2024-03-07T05:29:04;100605.72;;;7.33;54.53
29215;BME280;16252;49.816;7.964;2024-03-07T05:31:36;100623.94;;;7.41;54.35
29215;BME280;16252;49.816;7.964;2024-03-07T05:34:02;100598.91;;;7.27;54.55
29215;BME280;16252;49.816;7.964;2024-03-07T05:36:34;100618.56;;;7.42;54.29
29215;BME280;16252;49.816;7.964;2024-03-07T05:39:00;100608.31;;;7.34;54.36
29215;BME280;16252;49.816;7.964;2024-03-07T05:41:28;100616.75;;;7.43;54.62
29215;BME280;16252;49.816;7.964;2024-03-07T05:43:55;100610.88;;;7.36;54.36
29215;BME280;16252;49.816;7.964;2024-03-07T05:46:20;100597.34;;;7.23;54.54
29215;BME280;16252;49.816;7.964;2024-03-07T05:48:45;100620.19;;;7.45;54.27
29215;BME280;16252;49.816;7.964;2024-03-07T05:51:11;100623.78;;;7.44;54.12
29215;BME280;16252;49.816;7.964;2024-03-07T05:53:36;100598.06;;;7.27;54.05
29215;BME280;16252;49.816;7.964;2024-03-07T05:56:02;100599.09;;;7.24;53.92
29215;BME280;16252;49.816;7.964;2024-03-07T05:58:28;100584.44;;;7.15;54.11
29215;BME280;16252;49.816;7.964;2024-03-07T06:00:53;100579.53;;;7.08;54.12
29215;BME280;16252;49.816;7.964;2024-03-07T06:03:19;100589.31;;;7.07;54.04
29215;BME280;16252;49.816;7.964;2024-03-07T06:05:45;100597.38;;;7.06;54.11
29215;BME280;16252;49.816;7.964;2024-03-07T06:08:14;100544.50;;;6.82;54.19
29215;BME280;16252;49.816;7.964;2024-03-07T06:10:41;100613.91;;;7.12;54.00
29215;BME280;16252;49.816;7.964;2024-03-07T06:13:06;100569.47;;;6.80;53.88
29215;BME280;16252;49.816;7.964;2024-03-07T06:15:32;100586.00;;;6.86;54.10
29215;BME280;16252;49.816;7.964;2024-03-07T06:17:57;100604.34;;;6.91;53.98
29215;BME280;16252;49.816;7.964;2024-03-07T06:20:22;100593.19;;;6.84;54.07
29215;BME280;16252;49.816;7.964;2024-03-07T06:22:51;100603.66;;;6.87;54.46
29215;BME280;16252;49.816;7.964;2024-03-07T06:25:18;100586.50;;;6.76;54.18
29215;BME280;16252;49.816;7.964;2024-03-07T06:27:59;100626.19;;;6.98;54.31
29215;BME280;16252;49.816;7.964;2024-03-07T06:30:33;100604.13;;;6.78;54.12
29215;BME280;16252;49.816;7.964;2024-03-07T06:32:58;100616.41;;;6.81;54.59
29215;BME280;16252;49.816;7.964;2024-03-07T06:35:24;100603.50;;;6.73;54.53
29215;BME280;16252;49.816;7.964;2024-03-07T06:37:49;100614.75;;;6.78;54.56
29215;BME280;16252;49.816;7.964;2024-03-07T06:40:14;100605.13;;;6.76;54.43
29215;BME280;16252;49.816;7.964;2024-03-07T06:42:46;100577.59;;;6.59;54.55
29215;BME280;16252;49.816;7.964;2024-03-07T06:45:11;100603.25;;;6.78;54.66
29215;BME280;16252;49.816;7.964;2024-03-07T06:47:37;100607.66;;;6.79;54.55
29215;BME280;16252;49.816;7.964;2024-03-07T06:50:02;100592.16;;;6.69;54.53
29215;BME280;16252;49.816;7.964;2024-03-07T06:52:28;100573.63;;;6.68;54.53
29215;BME280;16252;49.816;7.964;2024-03-07T06:54:54;100604.75;;;6.83;54.60
29215;BME280;16252;49.816;7.964;2024-03-07T06:57:19;100606.47;;;6.84;54.55
29215;BME280;16252;49.816;7.964;2024-03-07T06:59:44;100616.00;;;6.88;54.71
29215;BME280;16252;49.816;7.964;2024-03-07T07:02:09;100597.88;;;6.79;54.69
29215;BME280;16252;49.816;7.964;2024-03-07T07:04:35;100608.81;;;6.90;54.84
29215;BME280;16252;49.816;7.964;2024-03-07T07:07:10;100611.25;;;6.95;55.13
29215;BME280;16252;49.816;7.964;2024-03-07T07:09:38;100622.44;;;7.02;54.81
29215;BME280;16252;49.816;7.964;2024-03-07T07:12:03;100616.09;;;7.04;54.95
29215;BME280;16252;49.816;7.964;2024-03-07T07:14:29;100624.59;;;7.11;54.87
29215;BME280;16252;49.816;7.964;2024-03-07T07:16:54;100621.88;;;7.12;54.89
29215;BME280;16252;49.816;7.964;2024-03-07T07:19:21;100627.47;;;7.24;54.90
29215;BME280;16252;49.816;7.964;2024-03-07T07:21:46;100602.41;;;7.12;54.89
29215;BME280;16252;49.816;7.964;2024-03-07T07:24:12;100583.91;;;7.09;54.82
29215;BME280;16252;49.816;7.964;2024-03-07T07:26:37;100602.78;;;7.22;55.01
29215;BME280;16252;49.816;7.964;2024-03-07T07:29:03;100593.84;;;7.23;54.94
29215;BME280;16252;49.816;7.964;2024-03-07T07:31:30;100599.72;;;7.29;54.90
29215;BME280;16252;49.816;7.964;2024-03-07T07:33:57;100592.47;;;7.31;54.87
29215;BME280;16252;49.816;7.964;2024-03-07T07:36:22;100592.22;;;7.36;54.75
29215;BME280;16252;49.816;7.964;2024-03-07T07:38:48;100577.22;;;7.35;54.96
29215;BME280;16252;49.816;7.964;2024-03-07T07:41:13;100592.00;;;7.41;54.82
29215;BME280;16252;49.816;7.964;2024-03-07T07:43:40;100619.25;;;7.62;55.13
29215;BME280;16252;49.816;7.964;2024-03-07T07:46:05;100578.06;;;7.35;54.93
29215;BME280;16252;49.816;7.964;2024-03-07T07:48:30;100590.78;;;7.46;55.02
29215;BME280;16252;49.816;7.964;2024-03-07T07:50:56;100590.63;;;7.49;54.96
29215;BME280;16252;49.816;7.964;2024-03-07T07:53:21;100606.78;;;7.62;55.09
29215;BME280;16252;49.816;7.964;2024-03-07T07:55:46;100546.59;;;7.26;54.93
29215;BME280;16252;49.816;7.964;2024-03-07T07:58:14;100573.78;;;7.49;55.15
29215;BME280;16252;49.816;7.964;2024-03-07T08:00:39;100595.28;;;7.62;55.32
29215;BME280;16252;49.816;7.964;2024-03-07T08:03:05;100602.09;;;7.67;55.48
29215;BME280;16252;49.816;7.964;2024-03-07T08:05:35;100607.44;;;7.83;55.42
29215;BME280;16252;49.816;7.964;2024-03-07T08:08:08;100579.66;;;7.71;55.20
29215;BME280;16252;49.816;7.964;2024-03-07T08:10:35;100615.63;;;7.96;55.31
29215;BME280;16252;49.816;7.964;2024-03-07T08:13:02;100574.03;;;7.77;55.22
29215;BME280;16252;49.816;7.964;2024-03-07T08:15:29;100620.25;;;8.08;55.09
29215;BME280;16252;49.816;7.964;2024-03-07T08:17:55;100614.56;;;8.14;54.85
29215;BME280;16252;49.816;7.964;2024-03-07T08:20:22;100586.06;;;8.00;54.68
29215;BME280;16252;49.816;7.964;2024-03-07T08:22:49;100617.50;;;8.25;54.55
29215;BME280;16252;49.816;7.964;2024-03-07T08:25:20;100615.44;;;8.31;54.35
29215;BME280;16252;49.816;7.964;2024-03-07T08:27:47;100592.16;;;8.18;54.38
29215;BME280;16252;49.816;7.964;2024-03-07T08:30:13;100592.03;;;8.20;54.20
29215;BME280;16252;49.816;7.964;2024-03-07T08:32:40;100616.97;;;8.35;53.92
29215;BME280;16252;49.816;7.964;2024-03-07T08:35:06;100597.22;;;8.23;54.11
29215;BME280;16252;49.816;7.964;2024-03-07T08:37:38;100604.41;;;8.37;54.00
29215;BME280;16252;49.816;7.964;2024-03-07T08:40:04;100592.31;;;8.31;53.78
29215;BME280;16252;49.816;7.964;2024-03-07T08:42:36;100607.19;;;8.51;54.11
29215;BME280;16252;49.816;7.964;2024-03-07T08:45:03;100594.59;;;8.37;53.66
29215;BME280;16252;49.816;7.964;2024-03-07T08:47:30;100612.41;;;8.53;53.53
29215;BME280;16252;49.816;7.964;2024-03-07T08:49:56;100607.94;;;8.53;53.34
29215;BME280;16252;49.816;7.964;2024-03-07T08:52:21;100577.25;;;8.46;53.04
29215;BME280;16252;49.816;7.964;2024-03-07T08:55:00;100555.63;;;8.35;52.70
29215;BME280;16252;49.816;7.964;2024-03-07T08:57:25;100535.53;;;8.29;52.79
29215;BME280;16252;49.816;7.964;2024-03-07T08:59:50;100568.03;;;8.52;52.55
29215;BME280;16252;49.816;7.964;2024-03-07T09:02:16;100600.50;;;8.74;52.70
29215;BME280;16252;49.816;7.964;2024-03-07T09:04:41;100576.16;;;8.64;52.32
29215;BME280;16252;49.816;7.964;2024-03-07T09:07:07;100600.63;;;8.87;52.11
29215;BME280;16252;49.816;7.964;2024-03-07T09:09:33;100581.44;;;8.80;52.44
29215;BME280;16252;49.816;7.964;2024-03-07T09:11:58;100559.16;;;8.81;52.46
29215;BME280;16252;49.816;7.964;2024-03-07T09:14:24;100568.59;;;9.01;52.32
29215;BME280;16252;49.816;7.964;2024-03-07T09:16:49;100559.47;;;9.05;51.83
29215;BME280;16252;49.816;7.964;2024-03-07T09:19:16;100531.44;;;8.98;51.50
29215;BME280;16252;49.816;7.964;2024-03-07T09:21:48;100531.16;;;9.03;51.34
29215;BME280;16252;49.816;7.964;2024-03-07T09:24:14;100559.59;;;9.32;51.41
29215;BME280;16252;49.816;7.964;2024-03-07T09:26:40;100517.34;;;9.10;51.06
29215;BME280;16252;49.816;7.964;2024-03-07T09:29:05;100558.06;;;9.43;50.52
29215;BME280;16252;49.816;7.964;2024-03-07T09:31:34;100575.50;;;9.63;50.29
29215;BME280;16252;49.816;7.964;2024-03-07T09:33:59;100558.22;;;9.54;50.14
29215;BME280;16252;49.816;7.964;2024-03-07T09:36:25;100542.13;;;9.55;49.71
29215;BME280;16252;49.816;7.964;2024-03-07T09:38:50;100523.50;;;9.54;49.97
29215;BME280;16252;49.816;7.964;2024-03-07T09:41:16;100571.38;;;9.86;50.04
29215;BME280;16252;49.816;7.964;2024-03-07T09:43:46;100542.84;;;9.72;49.23
29215;BME280;16252;49.816;7.964;2024-03-07T09:46:13;100539.88;;;9.76;49.61
29215;BME280;16252;49.816;7.964;2024-03-07T09:48:39;100563.50;;;9.97;49.02
29215;BME280;16252;49.816;7.964;2024-03-07T09:51:05;100559.59;;;10.03;49.13
29215;BME280;16252;49.816;7.964;2024-03-07T09:53:32;100526.38;;;9.92;49.27
29215;BME280;16252;49.816;7.964;2024-03-07T09:55:57;100446.66;;;9.45;48.98
29215;BME280;16252;49.816;7.964;2024-03-07T09:58:24;100556.56;;;10.22;48.42
29215;BME280;16252;49.816;7.964;2024-03-07T10:00:51;100491.22;;;9.98;48.73
29215;BME280;16252;49.816;7.964;2024-03-07T10:03:20;100550.69;;;10.44;48.63
29215;BME280;16252;49.816;7.964;2024-03-07T10:05:47;100559.50;;;10.58;48.94
29215;BME280;16252;49.816;7.964;2024-03-07T10:08:12;100563.69;;;10.75;48.82
29215;BME280;16252;49.816;7.964;2024-03-07T10:10:39;100504.38;;;10.56;49.12
29215;BME280;16252;49.816;7.964;2024-03-07T10:13:04;100560.09;;;11.02;48.83
29215;BME280;16252;49.816;7.964;2024-03-07T10:15:31;100550.44;;;11.12;48.63
29215;BME280;16252;49.816;7.964;2024-03-07T10:17:57;100489.81;;;10.85;48.15
29215;BME280;16252;49.816;7.964;2024-03-07T10:20:23;100525.69;;;11.21;48.74
29215;BME280;16252;49.816;7.964;2024-03-07T10:22:49;100407.06;;;10.70;48.84
29215;BME280;16252;49.816;7.964;2024-03-07T10:25:22;100527.78;;;11.67;48.03
29215;BME280;16252;49.816;7.964;2024-03-07T10:27:50;100523.00;;;11.84;47.68
29215;BME280;16252;49.816;7.964;2024-03-07T10:30:16;100514.66;;;11.88;47.31
29215;BME280;16252;49.816;7.964;2024-03-07T10:32:46;100443.56;;;11.46;47.29
29215;BME280;16252;49.816;7.964;2024-03-07T10:35:11;100519.97;;;12.01;47.11
29215;BME280;16252;49.816;7.964;2024-03-07T10:37:40;100533.66;;;12.09;46.86
29215;BME280;16252;49.816;7.964;2024-03-07T10:40:06;100526.38;;;12.23;47.14
29215;BME280;16252;49.816;7.964;2024-03-07T10:42:44;100512.91;;;12.35;47.36
29215;BME280;16252;49.816;7.964;2024-03-07T10:45:11;100509.03;;;12.40;47.08
29215;BME280;16252;49.816;7.964;2024-03-07T10:47:37;100484.19;;;12.49;46.42
29215;BME280;16252;49.816;7.964;2024-03-07T10:50:20;100544.19;;;12.83;43.63
29215;BME280;16252;49.816;7.964;2024-03-07T10:52:58;100533.94;;;12.88;45.13
29215;BME280;16252;49.816;7.964;2024-03-07T10:58:08;100496.94;;;12.80;45.72
29215;BME280;16252;49.816;7.964;2024-03-07T11:00:37;100502.84;;;13.08;46.28
29215;BME280;16252;49.816;7.964;2024-03-07T11:03:11;100515.72;;;13.50;46.72
29215;BME280;16252;49.816;7.964;2024-03-07T11:05:36;100511.97;;;13.84;46.71
29215;BME280;16252;49.816;7.964;2024-03-07T11:08:03;100519.44;;;14.24;46.04
29215;BME280;16252;49.816;7.964;2024-03-07T11:10:38;100510.53;;;14.56;44.94
29215;BME280;16252;49.816;7.964;2024-03-07T11:13:06;100485.81;;;14.51;43.80
29215;BME280;16252;49.816;7.964;2024-03-07T11:15:33;100458.47;;;14.35;44.01
29215;BME280;16252;49.816;7.964;2024-03-07T11:17:59;100428.88;;;14.35;44.16
29215;BME280;16252;49.816;7.964;2024-03-07T11:20:26;100499.38;;;14.82;43.67
29215;BME280;16252;49.816;7.964;2024-03-07T11:22:52;100435.72;;;14.60;43.93
29215;BME280;16252;49.816;7.964;2024-03-07T11:25:22;100469.19;;;14.88;43.57
29215;BME280;16252;49.816;7.964;2024-03-07T11:27:51;100486.44;;;15.06;42.54
29215;BME280;16252;49.816;7.964;2024-03-07T11:30:19;100452.19;;;14.87;43.54
29215;BME280;16252;49.816;7.964;2024-03-07T11:32:46;100486.44;;;15.06;43.15
29215;BME280;16252;49.816;7.964;2024-03-07T11:35:14;100455.72;;;14.88;43.28
29215;BME280;16252;49.816;7.964;2024-03-07T11:37:43;100463.69;;;14.89;41.83
29215;BME280;16252;49.816;7.964;2024-03-07T11:40:13;100437.84;;;14.56;42.76
29215;BME280;16252;49.816;7.964;2024-03-07T11:42:48;100411.91;;;14.23;42.85
29215;BME280;16252;49.816;7.964;2024-03-07T11:45:13;100428.47;;;14.18;42.97
29215;BME280;16252;49.816;7.964;2024-03-07T11:47:52;100461.63;;;14.19;42.78
29215;BME280;16252;49.816;7.964;2024-03-07T11:50:23;100431.16;;;13.86;42.95
29215;BME280;16252;49.816;7.964;2024-03-07T11:52:51;100411.69;;;13.61;43.22
29215;BME280;16252;49.816;7.964;2024-03-07T11:55:17;100421.09;;;13.56;43.37
29215;BME280;16252;49.816;7.964;2024-03-07T11:57:44;100452.38;;;13.57;43.33
29215;BME280;16252;49.816;7.964;2024-03-07T12:00:11;100455.69;;;13.49;43.39
29215;BME280;16252;49.816;7.964;2024-03-07T12:02:38;100427.38;;;13.22;43.50
29215;BME280;16252;49.816;7.964;2024-03-07T12:05:04;100360.97;;;12.68;43.60
29215;BME280;16252;49.816;7.964;2024-03-07T12:07:31;100428.84;;;13.04;44.23
29215;BME280;16252;49.816;7.964;2024-03-07T12:09:56;100405.03;;;12.77;44.28
29215;BME280;16252;49.816;7.964;2024-03-07T12:12:22;100291.41;;;11.98;44.13
29215;BME280;16252;49.816;7.964;2024-03-07T12:14:48;100378.66;;;12.48;44.51
29215;BME280;16252;49.816;7.964;2024-03-07T12:17:16;100403.06;;;12.56;44.52
29215;BME280;16252;49.816;7.964;2024-03-07T12:19:43;100422.09;;;12.65;44.79
29215;BME280;16252;49.816;7.964;2024-03-07T12:22:09;100416.97;;;12.62;44.68
29215;BME280;16252;49.816;7.964;2024-03-07T12:24:41;100409.28;;;12.57;44.82
29215;BME280;16252;49.816;7.964;2024-03-07T12:27:11;100402.69;;;12.50;44.69
29215;BME280;16252;49.816;7.964;2024-03-07T12:29:37;100416.53;;;12.79;44.87
29215;BME280;16252;49.816;7.964;2024-03-07T12:32:05;100393.53;;;12.52;44.79
29215;BME280;16252;49.816;7.964;2024-03-07T12:34:32;100356.06;;;12.28;45.08
29215;BME280;16252;49.816;7.964;2024-03-07T12:37:01;100383.78;;;12.51;45.04
29215;BME280;16252;49.816;7.964;2024-03-07T12:39:27;100355.69;;;12.33;45.16
29215;BME280;16252;49.816;7.964;2024-03-07T12:41:58;100384.25;;;12.45;45.22
29215;BME280;16252;49.816;7.964;2024-03-07T12:44:23;100367.16;;;12.35;44.97
29215;BME280;16252;49.816;7.964;2024-03-07T12:46:50;100397.94;;;12.53;45.13
29215;BME280;16252;49.816;7.964;2024-03-07T12:49:19;100380.56;;;12.35;45.31
29215;BME280;16252;49.816;7.964;2024-03-07T12:51:44;100363.25;;;12.28;45.44
29215;BME280;16252;49.816;7.964;2024-03-07T12:54:09;100385.13;;;12.46;45.51
29215;BME280;16252;49.816;7.964;2024-03-07T12:56:38;100338.34;;;12.14;44.99